Time;durP1;ratioP1;P1;durP2;ratioP2;P2;SDS_P1;SDS_P2;PMS_P1;PMS_P2;Temp;Humidity;BMP_temperature;BMP_pressure;BME280_temperature;BME280_humidity;BME280_pressure;Samples;Min_cycle;Max_cycle;Signal;HPM_P1;HPM_P2
2023/04/07 00:00:44;;;;;;;10.17;5.73;;;;;;;;;;5000070;28;20451;-89
2023/04/07 00:03:11;;;;;;;9.30;6.63;;;;;;;;;;5000312;28;20473;-89
2023/04/07 00:05:37;;;;;;;8.17;5.90;;;;;;;;;;5004253;28;20795;-89
2023/04/07 00:08:03;;;;;;;9.07;5.80;;;;;;;;;;5019351;28;20427;-90
2023/04/07 00:10:29;;;;;;;7.30;5.37;;;;;;;;;;5014512;28;20423;-89
2023/04/07 00:12:55;;;;;;;7.63;5.53;;;;;;;;;;5005205;28;20477;-90
2023/04/07 00:15:21;;;;;;;7.97;5.30;;;;;;;;;;5016765;28;20449;-89
2023/04/07 00:17:48;;;;;;;8.50;6.57;;;;;;;;;;5019746;28;20431;-89
2023/04/07 00:20:14;;;;;;;9.13;6.00;;;;;;;;;;4995839;28;20443;-89
2023/04/07 00:22:40;;;;;;;7.83;6.30;;;;;;;;;;5001536;28;20906;-89
2023/04/07 00:25:06;;;;;;;13.07;6.07;;;;;;;;;;5001099;28;20514;-89
2023/04/07 00:27:32;;;;;;;10.17;5.90;;;;;;;;;;4994899;28;20424;-90
2023/04/07 00:30:00;;;;;;;8.40;6.00;;;;;;;;;;5003485;28;20453;-89
2023/04/07 00:32:26;;;;;;;8.93;6.20;;;;;;;;;;4995534;28;20481;-89
2023/04/07 00:34:52;;;;;;;7.70;5.50;;;;;;;;;;5003002;28;20428;-89
2023/04/07 00:37:18;;;;;;;7.43;6.60;;;;;;;;;;4999867;28;20431;-89
2023/04/07 00:39:45;;;;;;;10.83;6.67;;;;;;;;;;4996691;28;20438;-89
2023/04/07 00:42:14;;;;;;;7.80;5.77;;;;;;;;;;5014747;28;20470;-89
2023/04/07 00:44:40;;;;;;;15.03;7.47;;;;;;;;;;4999438;28;20431;-89
2023/04/07 00:47:06;;;;;;;9.73;7.17;;;;;;;;;;4998716;28;20439;-88
2023/04/07 00:49:35;;;;;;;9.57;6.33;;;;;;;;;;4999064;28;21077;-89
2023/04/07 00:52:05;;;;;;;8.83;6.50;;;;;;;;;;5003793;28;20489;-89
2023/04/07 00:54:31;;;;;;;8.60;7.23;;;;;;;;;;5004505;28;20450;-89
2023/04/07 00:56:57;;;;;;;10.40;7.20;;;;;;;;;;4994610;28;20420;-89
2023/04/07 00:59:23;;;;;;;9.17;6.20;;;;;;;;;;5000341;28;20803;-89
2023/04/07 01:02:02;;;;;;;6.50;5.80;;;;;;;;;;4994972;28;20843;-88
2023/04/07 01:04:47;;;;;;;14.33;7.50;;;;;;;;;;5013794;28;20531;-89
2023/04/07 01:07:24;;;;;;;7.87;5.73;;;;;;;;;;5000014;28;20427;-89
2023/04/07 01:10:01;;;;;;;8.90;5.60;;;;;;;;;;4995337;28;20813;-89
2023/04/07 01:12:44;;;;;;;8.53;6.13;;;;;;;;;;4984199;28;20657;-88
2023/04/07 01:15:10;;;;;;;9.60;6.67;;;;;;;;;;4954941;28;20438;-89
2023/04/07 01:17:37;;;;;;;11.37;6.50;;;;;;;;;;4922197;29;20828;-89
2023/04/07 01:20:06;;;;;;;8.57;6.83;;;;;;;;;;4942627;28;20450;-89
2023/04/07 01:22:33;;;;;;;7.50;6.37;;;;;;;;;;4921144;28;20467;-89
2023/04/07 01:24:59;;;;;;;10.40;7.20;;;;;;;;;;4940279;28;20498;-89
2023/04/07 01:27:36;;;;;;;8.57;6.17;;;;;;;;;;4945356;28;20433;-89
2023/04/07 01:30:02;;;;;;;7.83;6.20;;;;;;;;;;4952386;28;20454;-89
2023/04/07 01:32:29;;;;;;;9.40;6.67;;;;;;;;;;4957532;28;20469;-90
2023/04/07 01:34:55;;;;;;;8.27;5.93;;;;;;;;;;4923929;29;20431;-89
2023/04/07 01:37:21;;;;;;;9.63;6.20;;;;;;;;;;4948163;29;20458;-89
2023/04/07 01:39:47;;;;;;;7.63;6.50;;;;;;;;;;4917099;28;20913;-89
2023/04/07 01:42:13;;;;;;;10.53;6.13;;;;;;;;;;4947573;28;20554;-89
2023/04/07 01:44:39;;;;;;;7.93;6.43;;;;;;;;;;4937921;28;20461;-87
2023/04/07 01:47:05;;;;;;;13.43;6.20;;;;;;;;;;4991868;28;20420;-88
2023/04/07 01:49:31;;;;;;;11.90;9.20;;;;;;;;;;5013962;28;20435;-87
2023/04/07 01:51:57;;;;;;;10.70;6.70;;;;;;;;;;5002218;28;20514;-87
2023/04/07 01:54:23;;;;;;;9.30;6.00;;;;;;;;;;4999118;28;20443;-89
2023/04/07 01:56:49;;;;;;;9.03;7.37;;;;;;;;;;5001868;28;21207;-89
2023/04/07 01:59:16;;;;;;;9.83;7.10;;;;;;;;;;5016655;28;20465;-88
2023/04/07 02:01:42;;;;;;;7.33;5.87;;;;;;;;;;4998862;28;20432;-89
2023/04/07 02:04:08;;;;;;;9.67;6.30;;;;;;;;;;4997863;28;20808;-88
2023/04/07 02:06:40;;;;;;;9.70;6.67;;;;;;;;;;5025016;28;20472;-89
2023/04/07 02:09:06;;;;;;;9.60;8.10;;;;;;;;;;5022467;28;20827;-89
2023/04/07 02:11:33;;;;;;;6.70;5.20;;;;;;;;;;5020211;28;20447;-89
2023/04/07 02:13:59;;;;;;;8.87;6.50;;;;;;;;;;5004896;28;20966;-89
2023/04/07 02:16:25;;;;;;;9.73;7.80;;;;;;;;;;5015225;28;20471;-89
2023/04/07 02:18:53;;;;;;;9.70;7.30;;;;;;;;;;5013155;28;20436;-89
2023/04/07 02:21:19;;;;;;;8.57;5.57;;;;;;;;;;5001446;28;20432;-89
2023/04/07 02:23:45;;;;;;;9.07;5.87;;;;;;;;;;4998782;28;20477;-89
2023/04/07 02:26:11;;;;;;;9.70;6.43;;;;;;;;;;5003383;28;20449;-89
2023/04/07 02:28:37;;;;;;;11.10;5.80;;;;;;;;;;5010319;28;20427;-88
2023/04/07 02:31:03;;;;;;;9.70;6.30;;;;;;;;;;5009015;28;20513;-89
2023/04/07 02:33:29;;;;;;;11.17;6.80;;;;;;;;;;5009342;28;20434;-89
2023/04/07 02:35:55;;;;;;;9.23;6.80;;;;;;;;;;5007990;28;20586;-90
2023/04/07 02:38:21;;;;;;;8.67;6.50;;;;;;;;;;5010242;28;20461;-87
2023/04/07 02:40:47;;;;;;;9.77;7.10;;;;;;;;;;4995703;28;20447;-88
2023/04/07 02:43:13;;;;;;;9.83;6.57;;;;;;;;;;5006031;28;20472;-87
2023/04/07 02:45:39;;;;;;;9.90;5.80;;;;;;;;;;5018786;28;20537;-87
2023/04/07 02:48:05;;;;;;;8.10;6.30;;;;;;;;;;5008740;28;20430;-87
2023/04/07 02:50:31;;;;;;;9.87;7.03;;;;;;;;;;5007585;28;20426;-89
2023/04/07 02:52:57;;;;;;;8.90;7.00;;;;;;;;;;5020228;28;20430;-89
2023/04/07 02:55:23;;;;;;;9.27;6.47;;;;;;;;;;5003296;28;20493;-89
2023/04/07 02:57:49;;;;;;;10.00;7.13;;;;;;;;;;4980959;28;20448;-89
2023/04/07 03:00:15;;;;;;;9.77;6.60;;;;;;;;;;4969225;28;20520;-89
2023/04/07 03:02:41;;;;;;;9.23;6.43;;;;;;;;;;4964098;28;20548;-88
2023/04/07 03:05:08;;;;;;;9.03;6.73;;;;;;;;;;4964176;28;20468;-89
2023/04/07 03:07:34;;;;;;;10.27;7.70;;;;;;;;;;4981833;28;20949;-89
2023/04/07 03:10:00;;;;;;;9.07;6.60;;;;;;;;;;4960558;28;20524;-87
2023/04/07 03:12:26;;;;;;;7.90;6.37;;;;;;;;;;4968417;28;20436;-89
2023/04/07 03:14:52;;;;;;;10.97;6.90;;;;;;;;;;4967882;28;20444;-88
2023/04/07 03:17:18;;;;;;;10.07;7.00;;;;;;;;;;4962357;28;20842;-86
2023/04/07 03:19:45;;;;;;;7.83;6.23;;;;;;;;;;4957642;28;20466;-89
2023/04/07 03:22:11;;;;;;;10.30;6.23;;;;;;;;;;4962150;28;20478;-89
2023/04/07 03:24:39;;;;;;;15.90;6.73;;;;;;;;;;4985865;28;20962;-89
2023/04/07 03:27:05;;;;;;;9.70;7.20;;;;;;;;;;4964021;28;20465;-88
2023/04/07 03:29:31;;;;;;;8.63;5.40;;;;;;;;;;5020569;28;20470;-89
2023/04/07 03:31:57;;;;;;;9.03;6.03;;;;;;;;;;4994020;28;20515;-89
2023/04/07 03:34:23;;;;;;;9.77;7.30;;;;;;;;;;5003813;28;20888;-89
2023/04/07 03:36:49;;;;;;;8.73;6.03;;;;;;;;;;5003104;28;20439;-89
2023/04/07 03:39:15;;;;;;;9.33;6.80;;;;;;;;;;5011589;28;20422;-90
2023/04/07 03:41:41;;;;;;;16.03;7.57;;;;;;;;;;5029483;28;20427;-89
2023/04/07 03:44:07;;;;;;;8.53;6.53;;;;;;;;;;5002017;28;20440;-89
2023/04/07 03:46:33;;;;;;;9.60;6.27;;;;;;;;;;5012714;28;20955;-89
2023/04/07 03:48:59;;;;;;;10.57;6.80;;;;;;;;;;5022374;28;20505;-89
2023/04/07 03:51:26;;;;;;;15.10;6.60;;;;;;;;;;5005441;28;20442;-89
2023/04/07 03:53:52;;;;;;;6.70;5.33;;;;;;;;;;5000799;28;20436;-89
2023/04/07 03:56:18;;;;;;;10.33;6.60;;;;;;;;;;5006025;28;20419;-89
2023/04/07 03:58:45;;;;;;;8.17;5.83;;;;;;;;;;5006225;28;20469;-89
2023/04/07 04:01:11;;;;;;;8.23;6.20;;;;;;;;;;5004294;28;20823;-89
2023/04/07 04:03:37;;;;;;;9.10;6.37;;;;;;;;;;5006565;28;20470;-88
2023/04/07 04:06:03;;;;;;;11.93;8.53;;;;;;;;;;5010960;28;20473;-89
2023/04/07 04:08:30;;;;;;;11.47;6.67;;;;;;;;;;5022246;28;20929;-89
2023/04/07 04:10:56;;;;;;;9.70;6.80;;;;;;;;;;4999235;28;20447;-89
2023/04/07 04:13:22;;;;;;;9.30;5.40;;;;;;;;;;4999932;28;20464;-89
2023/04/07 04:15:48;;;;;;;8.37;5.30;;;;;;;;;;5005437;28;20431;-87
2023/04/07 04:18:14;;;;;;;10.60;6.10;;;;;;;;;;5018185;28;20446;-89
2023/04/07 04:20:40;;;;;;;9.37;6.37;;;;;;;;;;5008517;28;20430;-89
2023/04/07 04:23:06;;;;;;;8.20;5.53;;;;;;;;;;5003278;28;20470;-89
2023/04/07 04:25:32;;;;;;;9.97;7.27;;;;;;;;;;5005369;28;20462;-89
2023/04/07 04:27:58;;;;;;;9.50;6.33;;;;;;;;;;5002453;28;20518;-89
2023/04/07 04:30:24;;;;;;;9.20;7.00;;;;;;;;;;5008905;28;20442;-87
2023/04/07 04:32:50;;;;;;;9.17;5.80;;;;;;;;;;5010692;28;20853;-87
2023/04/07 04:35:16;;;;;;;9.50;7.00;;;;;;;;;;5004437;28;20453;-88
2023/04/07 04:37:42;;;;;;;9.73;7.10;;;;;;;;;;5004826;28;20423;-88
2023/04/07 04:40:08;;;;;;;9.90;6.93;;;;;;;;;;5003712;28;20427;-89
2023/04/07 04:42:34;;;;;;;10.20;6.60;;;;;;;;;;5003966;28;20478;-89
2023/04/07 04:45:00;;;;;;;7.43;5.70;;;;;;;;;;5002691;28;20641;-87
2023/04/07 04:47:26;;;;;;;8.60;6.47;;;;;;;;;;5000360;28;20423;-89
2023/04/07 04:49:52;;;;;;;10.87;7.10;;;;;;;;;;5006384;28;20857;-89
2023/04/07 04:52:18;;;;;;;13.30;6.70;;;;;;;;;;5003026;28;20427;-89
2023/04/07 04:54:44;;;;;;;8.23;6.60;;;;;;;;;;5001294;28;20427;-89
2023/04/07 04:57:10;;;;;;;10.03;6.20;;;;;;;;;;5014470;28;20444;-89
2023/04/07 04:59:36;;;;;;;9.23;7.27;;;;;;;;;;5001859;28;20439;-89
2023/04/07 05:02:02;;;;;;;9.13;6.53;;;;;;;;;;5005719;28;20969;-89
2023/04/07 05:04:28;;;;;;;11.07;6.90;;;;;;;;;;5006059;28;20438;-87
2023/04/07 05:06:54;;;;;;;9.50;7.00;;;;;;;;;;5023029;28;20433;-89
2023/04/07 05:09:20;;;;;;;10.33;7.10;;;;;;;;;;5004436;28;20443;-89
2023/04/07 05:11:46;;;;;;;10.40;6.17;;;;;;;;;;5003870;28;20435;-87
2023/04/07 05:14:12;;;;;;;8.60;5.77;;;;;;;;;;5004521;28;20820;-89
2023/04/07 05:16:38;;;;;;;10.87;6.67;;;;;;;;;;5002507;28;20427;-89
2023/04/07 05:19:04;;;;;;;11.07;6.60;;;;;;;;;;5007420;28;20454;-89
2023/04/07 05:21:30;;;;;;;8.37;6.57;;;;;;;;;;5016383;28;20527;-89
2023/04/07 05:23:59;;;;;;;9.87;6.67;;;;;;;;;;5021835;28;20962;-89
2023/04/07 05:26:25;;;;;;;10.07;6.97;;;;;;;;;;5013910;28;20447;-89
2023/04/07 05:28:51;;;;;;;9.20;6.47;;;;;;;;;;5017950;28;20431;-89
2023/04/07 05:31:17;;;;;;;11.00;6.77;;;;;;;;;;5005969;28;20450;-89
2023/04/07 05:33:43;;;;;;;8.87;6.60;;;;;;;;;;5002140;28;20442;-88
2023/04/07 05:36:09;;;;;;;10.23;6.50;;;;;;;;;;4998821;28;20465;-89
2023/04/07 05:38:35;;;;;;;8.90;6.17;;;;;;;;;;5010369;28;20443;-88
2023/04/07 05:41:01;;;;;;;9.73;6.80;;;;;;;;;;5012057;28;20423;-89
2023/04/07 05:43:27;;;;;;;10.13;6.40;;;;;;;;;;5014586;28;20470;-89
2023/04/07 05:45:53;;;;;;;8.73;6.53;;;;;;;;;;5023013;28;20908;-89
2023/04/07 05:48:19;;;;;;;7.40;5.90;;;;;;;;;;5008542;28;20427;-89
2023/04/07 05:50:45;;;;;;;8.60;6.93;;;;;;;;;;5006128;28;20483;-89
2023/04/07 05:53:11;;;;;;;7.50;5.97;;;;;;;;;;5005979;28;20451;-89
2023/04/07 05:55:37;;;;;;;9.63;6.83;;;;;;;;;;5006503;28;20435;-89
2023/04/07 05:58:03;;;;;;;8.73;6.50;;;;;;;;;;5004016;28;20443;-89
2023/04/07 06:00:29;;;;;;;12.93;6.10;;;;;;;;;;5008488;28;20607;-89
2023/04/07 06:02:55;;;;;;;9.77;7.37;;;;;;;;;;5023760;28;20454;-89
2023/04/07 06:05:21;;;;;;;8.97;6.90;;;;;;;;;;5006033;28;20581;-88
2023/04/07 06:07:47;;;;;;;8.03;5.50;;;;;;;;;;5002180;28;20497;-89
2023/04/07 06:10:14;;;;;;;13.87;6.97;;;;;;;;;;5011981;28;20805;-90
2023/04/07 06:12:40;;;;;;;8.80;6.50;;;;;;;;;;5024768;28;20435;-89
2023/04/07 06:15:07;;;;;;;9.83;6.47;;;;;;;;;;5015921;28;20449;-88
2023/04/07 06:17:33;;;;;;;9.00;6.40;;;;;;;;;;5004658;28;20574;-89
2023/04/07 06:19:59;;;;;;;8.97;6.63;;;;;;;;;;5001776;28;20515;-89
2023/04/07 06:22:25;;;;;;;10.00;6.50;;;;;;;;;;5000251;28;20473;-89
2023/04/07 06:24:51;;;;;;;10.40;7.30;;;;;;;;;;5000556;28;21124;-89
2023/04/07 06:27:17;;;;;;;8.93;7.17;;;;;;;;;;4999845;28;20430;-89
2023/04/07 06:29:43;;;;;;;9.47;6.07;;;;;;;;;;5002236;28;20514;-89
2023/04/07 06:32:09;;;;;;;10.67;6.53;;;;;;;;;;5005179;28;20524;-88
2023/04/07 06:34:35;;;;;;;8.90;6.97;;;;;;;;;;5022874;28;20869;-89
2023/04/07 06:37:02;;;;;;;7.97;6.07;;;;;;;;;;5021764;28;20438;-89
2023/04/07 06:39:31;;;;;;;10.97;6.63;;;;;;;;;;5003230;28;20502;-89
2023/04/07 06:41:57;;;;;;;12.53;7.20;;;;;;;;;;5001155;28;20531;-89
2023/04/07 06:44:23;;;;;;;10.83;7.00;;;;;;;;;;5012135;28;20950;-89
2023/04/07 06:46:52;;;;;;;8.90;6.20;;;;;;;;;;5005341;28;20423;-89
2023/04/07 06:49:18;;;;;;;9.40;7.90;;;;;;;;;;4997445;28;20454;-89
2023/04/07 06:51:44;;;;;;;10.33;6.73;;;;;;;;;;5021834;28;20447;-87
2023/04/07 06:54:14;;;;;;;9.40;6.60;;;;;;;;;;5005805;28;20946;-89
2023/04/07 06:56:40;;;;;;;8.57;6.40;;;;;;;;;;5004839;28;20492;-89
2023/04/07 06:59:09;;;;;;;9.57;7.00;;;;;;;;;;5003394;28;20446;-87
2023/04/07 07:01:36;;;;;;;9.20;7.17;;;;;;;;;;5005115;28;20441;-87
2023/04/07 07:04:04;;;;;;;9.13;6.97;;;;;;;;;;5004106;28;20489;-85
2023/04/07 07:06:30;;;;;;;8.83;6.13;;;;;;;;;;5005742;28;20439;-88
2023/04/07 07:08:56;;;;;;;8.73;6.20;;;;;;;;;;5003484;28;20415;-88
2023/04/07 07:11:22;;;;;;;9.13;6.77;;;;;;;;;;5019561;28;20852;-89
2023/04/07 07:13:48;;;;;;;7.63;6.63;;;;;;;;;;5004127;28;20424;-89
2023/04/07 07:16:14;;;;;;;15.97;8.00;;;;;;;;;;5010824;28;20813;-89
2023/04/07 07:18:40;;;;;;;9.97;7.07;;;;;;;;;;5018218;28;20439;-89
2023/04/07 07:21:07;;;;;;;9.00;7.00;;;;;;;;;;5005119;28;20486;-89
2023/04/07 07:23:33;;;;;;;32.87;8.43;;;;;;;;;;5004649;28;21092;-89
2023/04/07 07:25:59;;;;;;;8.03;6.77;;;;;;;;;;5000574;28;20435;-90
2023/04/07 07:28:25;;;;;;;8.70;6.50;;;;;;;;;;5005449;28;20431;-90
2023/04/07 07:30:52;;;;;;;11.27;7.53;;;;;;;;;;5004510;28;20443;-89
2023/04/07 07:33:18;;;;;;;8.37;6.40;;;;;;;;;;5003326;28;20419;-89
2023/04/07 07:35:46;;;;;;;11.40;7.57;;;;;;;;;;5005224;28;20522;-89
2023/04/07 07:38:12;;;;;;;8.60;7.00;;;;;;;;;;5004324;28;20506;-88
2023/04/07 07:40:38;;;;;;;10.43;7.07;;;;;;;;;;4994349;28;20404;-89
2023/04/07 07:43:04;;;;;;;10.00;6.90;;;;;;;;;;4994688;28;20479;-88
2023/04/07 07:45:30;;;;;;;10.70;6.80;;;;;;;;;;5022974;28;20423;-89
2023/04/07 07:47:56;;;;;;;9.77;6.63;;;;;;;;;;5000551;28;20431;-89
2023/04/07 07:50:23;;;;;;;9.87;6.70;;;;;;;;;;5024353;28;20438;-90
2023/04/07 07:52:48;;;;;;;8.07;7.23;;;;;;;;;;5003415;28;20443;-90
2023/04/07 07:55:14;;;;;;;12.73;7.10;;;;;;;;;;5005506;28;20425;-90
2023/04/07 07:57:40;;;;;;;9.60;7.00;;;;;;;;;;4995966;28;20470;-90
2023/04/07 08:00:08;;;;;;;8.83;6.43;;;;;;;;;;4998220;28;20496;-90
2023/04/07 08:02:35;;;;;;;9.53;6.63;;;;;;;;;;5002034;28;20470;-90
2023/04/07 08:05:01;;;;;;;12.80;6.40;;;;;;;;;;5004624;28;20430;-90
2023/04/07 08:07:27;;;;;;;8.93;6.07;;;;;;;;;;5002174;28;20439;-90
2023/04/07 08:09:53;;;;;;;9.10;6.20;;;;;;;;;;5000191;28;20443;-90
2023/04/07 08:12:19;;;;;;;7.37;5.60;;;;;;;;;;5016704;28;20466;-92
2023/04/07 08:14:45;;;;;;;6.90;4.90;;;;;;;;;;5002400;28;21568;-91
2023/04/07 08:17:11;;;;;;;8.17;6.87;;;;;;;;;;5001841;28;21163;-91
2023/04/07 08:19:37;;;;;;;7.17;6.00;;;;;;;;;;5003827;28;20435;-91
2023/04/07 08:22:03;;;;;;;5.50;4.30;;;;;;;;;;5002917;28;20424;-91
2023/04/07 08:24:29;;;;;;;7.17;4.87;;;;;;;;;;5004663;28;20558;-91
2023/04/07 08:26:55;;;;;;;7.90;5.47;;;;;;;;;;4998403;28;21002;-91
2023/04/07 08:29:21;;;;;;;6.83;5.03;;;;;;;;;;5006275;28;20492;-91
2023/04/07 08:31:47;;;;;;;6.83;5.17;;;;;;;;;;5005174;28;20439;-91
2023/04/07 08:34:13;;;;;;;7.10;4.57;;;;;;;;;;5004973;28;20432;-90
2023/04/07 08:36:39;;;;;;;5.83;5.23;;;;;;;;;;4998908;28;20423;-90
2023/04/07 08:39:05;;;;;;;6.90;4.57;;;;;;;;;;5000381;28;20437;-91
2023/04/07 08:41:39;;;;;;;7.67;4.63;;;;;;;;;;5019110;28;20438;-90
2023/04/07 08:44:05;;;;;;;6.23;4.43;;;;;;;;;;5004324;28;20466;-90
2023/04/07 08:46:31;;;;;;;6.67;4.60;;;;;;;;;;4998676;28;20420;-90
2023/04/07 08:48:57;;;;;;;6.50;4.47;;;;;;;;;;4997578;28;21022;-90
2023/04/07 08:51:27;;;;;;;5.77;4.63;;;;;;;;;;5004712;28;20423;-91
2023/04/07 08:53:53;;;;;;;6.93;5.53;;;;;;;;;;5005407;28;20416;-91
2023/04/07 08:56:22;;;;;;;8.47;5.57;;;;;;;;;;5012287;28;20444;-92
2023/04/07 08:58:48;;;;;;;6.23;5.33;;;;;;;;;;5010316;28;21137;-89
2023/04/07 09:01:15;;;;;;;6.03;4.70;;;;;;;;;;5009998;28;20483;-90
2023/04/07 09:03:42;;;;;;;5.33;4.67;;;;;;;;;;5004903;28;20456;-89
2023/04/07 09:06:08;;;;;;;8.50;4.97;;;;;;;;;;5012559;28;20971;-89
2023/04/07 09:08:34;;;;;;;8.77;4.80;;;;;;;;;;5016591;28;20478;-90
2023/04/07 09:11:00;;;;;;;7.33;5.23;;;;;;;;;;5015739;28;20446;-90
2023/04/07 09:13:26;;;;;;;7.17;5.00;;;;;;;;;;5032745;28;21147;-89
2023/04/07 09:15:52;;;;;;;5.20;4.57;;;;;;;;;;5014470;28;20451;-89
2023/04/07 09:18:18;;;;;;;7.00;5.23;;;;;;;;;;5013787;28;20437;-90
2023/04/07 09:20:57;;;;;;;6.43;4.83;;;;;;;;;;5014988;28;20517;-89
2023/04/07 09:23:29;;;;;;;7.07;4.60;;;;;;;;;;5024025;28;20975;-89
2023/04/07 09:25:58;;;;;;;5.77;4.47;;;;;;;;;;5027333;28;20943;-90
2023/04/07 09:28:24;;;;;;;6.57;5.40;;;;;;;;;;5012539;28;20438;-89
2023/04/07 09:30:53;;;;;;;7.00;5.10;;;;;;;;;;5010221;28;20569;-90
2023/04/07 09:33:26;;;;;;;7.07;5.07;;;;;;;;;;5013372;28;20425;-90
2023/04/07 09:35:52;;;;;;;5.53;4.00;;;;;;;;;;5029509;28;20435;-90
2023/04/07 09:38:18;;;;;;;4.73;4.10;;;;;;;;;;5010146;28;20449;-90
2023/04/07 09:40:44;;;;;;;6.23;4.50;;;;;;;;;;5005630;28;20450;-89
2023/04/07 09:43:19;;;;;;;5.90;5.00;;;;;;;;;;5017846;28;20453;-90
2023/04/07 09:45:45;;;;;;;6.57;4.90;;;;;;;;;;5031583;28;20453;-90
2023/04/07 09:48:21;;;;;;;6.57;5.00;;;;;;;;;;5011689;28;21264;-89
2023/04/07 09:50:50;;;;;;;6.10;4.47;;;;;;;;;;5006384;28;20452;-89
2023/04/07 09:53:18;;;;;;;8.23;3.63;;;;;;;;;;5010670;28;21239;-89
2023/04/07 09:55:44;;;;;;;6.43;4.60;;;;;;;;;;5023802;28;20426;-90
2023/04/07 09:58:13;;;;;;;5.67;4.40;;;;;;;;;;5010480;28;20438;-89
2023/04/07 10:00:40;;;;;;;5.07;3.93;;;;;;;;;;5018162;28;20813;-89
2023/04/07 10:03:06;;;;;;;6.37;3.80;;;;;;;;;;5025352;28;20530;-89
2023/04/07 10:05:34;;;;;;;6.40;4.20;;;;;;;;;;5002001;28;20519;-89
2023/04/07 10:08:01;;;;;;;6.60;4.73;;;;;;;;;;5023854;28;20455;-90
2023/04/07 10:10:27;;;;;;;6.87;4.97;;;;;;;;;;5007251;28;20422;-90
2023/04/07 10:12:53;;;;;;;5.83;4.40;;;;;;;;;;5002939;28;20426;-91
2023/04/07 10:15:19;;;;;;;7.97;4.80;;;;;;;;;;5006339;28;20439;-89
2023/04/07 10:17:47;;;;;;;7.03;4.70;;;;;;;;;;5006868;28;20439;-89
2023/04/07 10:20:13;;;;;;;6.13;4.73;;;;;;;;;;5010740;28;20430;-90
2023/04/07 10:22:39;;;;;;;7.00;4.43;;;;;;;;;;5002711;28;20450;-88
2023/04/07 10:25:06;;;;;;;7.90;4.70;;;;;;;;;;4987275;28;20420;-89
2023/04/07 10:27:33;;;;;;;6.33;5.63;;;;;;;;;;4982928;28;20536;-90
2023/04/07 10:29:59;;;;;;;6.07;4.20;;;;;;;;;;4969178;28;20528;-90
2023/04/07 10:32:25;;;;;;;6.30;4.47;;;;;;;;;;4969272;28;20444;-89
2023/04/07 10:34:54;;;;;;;7.20;4.77;;;;;;;;;;4968586;28;20440;-90
2023/04/07 10:37:22;;;;;;;6.00;4.60;;;;;;;;;;4982630;28;20504;-90
2023/04/07 10:39:48;;;;;;;9.77;4.17;;;;;;;;;;4948103;29;20454;-89
2023/04/07 10:42:33;;;;;;;5.10;4.60;;;;;;;;;;4931228;29;20527;-90
2023/04/07 10:45:02;;;;;;;10.50;4.47;;;;;;;;;;4941651;29;20428;-90
2023/04/07 10:47:28;;;;;;;5.03;4.53;;;;;;;;;;4944260;29;20423;-89
2023/04/07 10:50:13;;;;;;;6.93;5.07;;;;;;;;;;4943272;29;20585;-89
2023/04/07 10:52:39;;;;;;;8.50;5.77;;;;;;;;;;4947078;29;20498;-90
2023/04/07 10:55:24;;;;;;;7.80;5.40;;;;;;;;;;4944525;28;20436;-90
2023/04/07 10:58:08;;;;;;;7.57;5.73;;;;;;;;;;4985466;28;20410;-90
2023/04/07 11:00:34;;;;;;;8.10;5.60;;;;;;;;;;4980827;28;20414;-89
2023/04/07 11:03:09;;;;;;;8.00;5.77;;;;;;;;;;4979314;28;20498;-90
2023/04/07 11:05:37;;;;;;;6.30;5.03;;;;;;;;;;4975932;28;20438;-90
2023/04/07 11:08:05;;;;;;;6.50;4.90;;;;;;;;;;4980902;28;20422;-90
2023/04/07 11:10:33;;;;;;;7.37;4.87;;;;;;;;;;4997636;28;20430;-90
2023/04/07 11:13:00;;;;;;;7.77;5.47;;;;;;;;;;5030243;28;20445;-88
2023/04/07 11:15:27;;;;;;;8.03;5.03;;;;;;;;;;5010413;28;21017;-90
2023/04/07 11:18:12;;;;;;;11.53;5.70;;;;;;;;;;5019348;28;20438;-90
2023/04/07 11:20:44;;;;;;;8.80;5.50;;;;;;;;;;5021942;28;20422;-90
2023/04/07 11:23:11;;;;;;;7.30;5.40;;;;;;;;;;5020673;28;20552;-90
2023/04/07 11:25:37;;;;;;;7.73;4.97;;;;;;;;;;5009122;28;20450;-90
2023/04/07 11:28:03;;;;;;;6.47;4.33;;;;;;;;;;5009748;28;20439;-89
2023/04/07 11:30:29;;;;;;;6.10;5.00;;;;;;;;;;5013127;28;20447;-90
2023/04/07 11:32:55;;;;;;;6.57;5.40;;;;;;;;;;5010517;28;20430;-90
2023/04/07 11:35:22;;;;;;;6.23;5.47;;;;;;;;;;5010769;28;20436;-89
2023/04/07 11:37:48;;;;;;;5.20;4.70;;;;;;;;;;5009778;28;20445;-90
2023/04/07 11:40:15;;;;;;;6.37;5.70;;;;;;;;;;5008789;28;20443;-90
2023/04/07 11:42:41;;;;;;;8.70;5.90;;;;;;;;;;5022679;28;21060;-89
2023/04/07 11:45:18;;;;;;;10.30;6.63;;;;;;;;;;5021877;28;20464;-89
2023/04/07 11:47:45;;;;;;;6.90;6.10;;;;;;;;;;5007270;28;20431;-90
2023/04/07 11:50:11;;;;;;;7.43;6.47;;;;;;;;;;5006528;28;20442;-90
2023/04/07 11:52:40;;;;;;;8.30;6.50;;;;;;;;;;5008854;28;20416;-90
2023/04/07 11:55:07;;;;;;;8.53;6.17;;;;;;;;;;5002578;28;20439;-90
2023/04/07 11:57:33;;;;;;;9.90;5.93;;;;;;;;;;5011450;28;20426;-90
2023/04/07 12:00:05;;;;;;;7.97;6.90;;;;;;;;;;5017413;28;20418;-89
2023/04/07 12:02:33;;;;;;;8.63;7.30;;;;;;;;;;5019798;28;20459;-90
2023/04/07 12:04:59;;;;;;;6.77;5.40;;;;;;;;;;5012908;28;20407;-89
2023/04/07 12:07:25;;;;;;;6.97;6.23;;;;;;;;;;4983779;28;20421;-89
2023/04/07 12:09:52;;;;;;;13.03;7.23;;;;;;;;;;4979492;28;20434;-89
2023/04/07 12:12:27;;;;;;;16.00;6.50;;;;;;;;;;4962479;28;20437;-88
2023/04/07 12:14:54;;;;;;;9.40;6.63;;;;;;;;;;4957427;28;20797;-90
2023/04/07 12:17:23;;;;;;;7.70;6.80;;;;;;;;;;4965232;28;20441;-90
2023/04/07 12:19:49;;;;;;;7.90;6.23;;;;;;;;;;4962637;28;20438;-90
2023/04/07 12:22:15;;;;;;;8.33;6.40;;;;;;;;;;4958809;28;20437;-90
2023/04/07 12:24:41;;;;;;;6.23;5.30;;;;;;;;;;4964052;28;20516;-91
2023/04/07 12:27:07;;;;;;;8.90;6.27;;;;;;;;;;4957487;28;20446;-89
2023/04/07 12:29:34;;;;;;;8.23;6.10;;;;;;;;;;4976461;28;20442;-91
2023/04/07 12:32:00;;;;;;;9.63;7.50;;;;;;;;;;4975926;28;20432;-90
2023/04/07 12:34:26;;;;;;;10.60;6.47;;;;;;;;;;4949772;28;20438;-90
2023/04/07 12:36:53;;;;;;;8.40;6.67;;;;;;;;;;4968597;28;21064;-90
2023/04/07 12:39:20;;;;;;;7.90;6.47;;;;;;;;;;4973740;28;20427;-90
2023/04/07 12:41:47;;;;;;;8.87;5.43;;;;;;;;;;4963744;28;20437;-90
2023/04/07 12:44:13;;;;;;;5.87;4.60;;;;;;;;;;4963258;28;20474;-90
2023/04/07 12:46:39;;;;;;;5.77;4.90;;;;;;;;;;4997240;28;20424;-90
2023/04/07 12:49:05;;;;;;;4.80;3.97;;;;;;;;;;5010344;28;20483;-90
2023/04/07 12:51:32;;;;;;;7.30;4.43;;;;;;;;;;5002807;28;20955;-90
2023/04/07 12:54:02;;;;;;;5.13;4.67;;;;;;;;;;5004168;28;20542;-90
2023/04/07 12:56:28;;;;;;;5.90;4.23;;;;;;;;;;5006001;28;20922;-90
2023/04/07 12:58:54;;;;;;;5.83;4.17;;;;;;;;;;5018383;28;20446;-90
2023/04/07 13:01:20;;;;;;;6.00;5.27;;;;;;;;;;5004003;28;20449;-90
2023/04/07 13:03:46;;;;;;;6.60;4.87;;;;;;;;;;5006466;28;20459;-92
2023/04/07 13:06:12;;;;;;;7.33;5.03;;;;;;;;;;5011848;28;20435;-93
2023/04/07 13:08:39;;;;;;;5.80;5.23;;;;;;;;;;5013212;28;20801;-93
2023/04/07 13:11:05;;;;;;;7.23;5.10;;;;;;;;;;5004080;28;20474;-91
2023/04/07 13:13:31;;;;;;;6.67;4.00;;;;;;;;;;4997897;28;20439;-91
2023/04/07 13:15:57;;;;;;;4.00;3.60;;;;;;;;;;5008651;28;20456;-91
2023/04/07 13:18:23;;;;;;;4.90;4.40;;;;;;;;;;5014384;28;20451;-90
2023/04/07 13:20:49;;;;;;;4.23;3.80;;;;;;;;;;5022472;28;20486;-91
2023/04/07 13:23:15;;;;;;;6.13;3.27;;;;;;;;;;5001803;28;20467;-90
2023/04/07 13:25:41;;;;;;;3.70;2.80;;;;;;;;;;5012919;28;20934;-90
2023/04/07 13:28:07;;;;;;;3.30;2.87;;;;;;;;;;5005024;28;20435;-90
2023/04/07 13:30:33;;;;;;;4.00;2.43;;;;;;;;;;5007981;28;20452;-92
2023/04/07 13:32:59;;;;;;;4.27;2.90;;;;;;;;;;4999726;28;20428;-92
2023/04/07 13:35:25;;;;;;;5.80;2.70;;;;;;;;;;5007609;28;20911;-94
2023/04/07 13:37:51;;;;;;;4.27;2.87;;;;;;;;;;5000311;28;20443;-93
2023/04/07 13:40:17;;;;;;;3.50;2.80;;;;;;;;;;5010458;28;20446;-94
2023/04/07 13:42:44;;;;;;;4.00;3.00;;;;;;;;;;5004355;28;20472;-95
2023/04/07 13:45:10;;;;;;;3.90;2.53;;;;;;;;;;5004367;28;20435;-93
2023/04/07 13:47:36;;;;;;;4.10;3.27;;;;;;;;;;5004497;28;20431;-94
2023/04/07 13:50:02;;;;;;;3.73;3.00;;;;;;;;;;5007330;28;20423;-92
2023/04/07 13:52:28;;;;;;;2.93;2.73;;;;;;;;;;5002379;28;21226;-92
2023/04/07 13:54:56;;;;;;;4.73;2.90;;;;;;;;;;5009178;28;20454;-93
2023/04/07 13:57:30;;;;;;;4.57;2.77;;;;;;;;;;5002844;28;20442;-93
2023/04/07 13:59:56;;;;;;;4.00;3.37;;;;;;;;;;5008281;28;20961;-92
2023/04/07 14:02:28;;;;;;;4.20;3.80;;;;;;;;;;4999300;28;20459;-93
2023/04/07 14:04:54;;;;;;;4.10;3.80;;;;;;;;;;5009554;28;20454;-93
2023/04/07 14:07:21;;;;;;;5.87;3.87;;;;;;;;;;5003979;28;20440;-92
2023/04/07 14:09:47;;;;;;;3.33;3.00;;;;;;;;;;5014260;28;20433;-91
2023/04/07 14:12:13;;;;;;;3.30;3.00;;;;;;;;;;5011723;28;20957;-92
2023/04/07 14:14:39;;;;;;;5.30;3.80;;;;;;;;;;5004697;28;20462;-92
2023/04/07 14:17:05;;;;;;;4.53;3.37;;;;;;;;;;5002744;28;20427;-92
2023/04/07 14:19:35;;;;;;;4.13;3.73;;;;;;;;;;5014894;28;20491;-94
2023/04/07 14:22:01;;;;;;;7.60;3.73;;;;;;;;;;5018130;28;20431;-92
2023/04/07 14:24:27;;;;;;;4.47;3.93;;;;;;;;;;5006595;28;20800;-92
2023/04/07 14:26:53;;;;;;;5.93;4.60;;;;;;;;;;5010780;28;20468;-90
2023/04/07 14:29:22;;;;;;;6.43;5.00;;;;;;;;;;5004147;28;20473;-90
2023/04/07 14:31:48;;;;;;;11.53;5.40;;;;;;;;;;5002968;28;20465;-90
2023/04/07 14:34:14;;;;;;;6.23;4.60;;;;;;;;;;5003311;28;20487;-89
2023/04/07 14:36:41;;;;;;;5.77;3.63;;;;;;;;;;5006126;28;20437;-89
2023/04/07 14:39:07;;;;;;;5.80;3.93;;;;;;;;;;5008932;28;20499;-88